sensor_id;sensor_type;location;lat;lon;timestamp;pressure;altitude;pressure_sealevel;temperature;humidity
1926;BME280;964;42.606;23.588;2023-11-21T00:00:22;94350.28;;;15.63;39.39
1926;BME280;964;42.606;23.588;2023-11-21T00:02:49;94359.44;;;15.69;38.89
1926;BME280;964;42.606;23.588;2023-11-21T00:05:16;94355.63;;;15.66;39.12
1926;BME280;964;42.606;23.588;2023-11-21T00:07:43;94352.56;;;15.68;38.86
1926;BME280;964;42.606;23.588;2023-11-21T00:10:11;94352.44;;;16.03;38.74
1926;BME280;964;42.606;23.588;2023-11-21T00:12:39;94352.06;;;16.05;38.00
1926;BME280;964;42.606;23.588;2023-11-21T00:15:08;94349.06;;;15.92;39.18
1926;BME280;964;42.606;23.588;2023-11-21T00:17:37;94354.63;;;16.33;38.63
1926;BME280;964;42.606;23.588;2023-11-21T00:20:06;94352.91;;;16.75;37.39
1926;BME280;964;42.606;23.588;2023-11-21T00:22:33;94361.84;;;16.36;37.80
1926;BME280;964;42.606;23.588;2023-11-21T00:25:00;94361.97;;;16.15;38.61
1926;BME280;964;42.606;23.588;2023-11-21T00:27:29;94354.59;;;16.37;38.16
1926;BME280;964;42.606;23.588;2023-11-21T00:29:55;94362.38;;;16.13;38.59
1926;BME280;964;42.606;23.588;2023-11-21T00:32:21;94364.63;;;16.15;38.44
1926;BME280;964;42.606;23.588;2023-11-21T00:34:49;94355.13;;;16.00;38.88
1926;BME280;964;42.606;23.588;2023-11-21T00:37:16;94354.81;;;15.84;38.55
1926;BME280;964;42.606;23.588;2023-11-21T00:39:43;94354.81;;;15.87;39.18
1926;BME280;964;42.606;23.588;2023-11-21T00:42:10;94357.19;;;15.14;40.82
1926;BME280;964;42.606;23.588;2023-11-21T00:44:37;94336.59;;;15.43;40.11
1926;BME280;964;42.606;23.588;2023-11-21T00:47:04;94341.16;;;15.57;39.46
1926;BME280;964;42.606;23.588;2023-11-21T00:49:31;94345.00;;;15.13;40.69
1926;BME280;964;42.606;23.588;2023-11-21T00:52:00;94351.88;;;15.18;40.83
1926;BME280;964;42.606;23.588;2023-11-21T00:54:27;94349.56;;;15.59;39.51
1926;BME280;964;42.606;23.588;2023-11-21T00:56:54;94344.03;;;16.12;38.99
1926;BME280;964;42.606;23.588;2023-11-21T00:59:20;94349.13;;;15.67;39.25
1926;BME280;964;42.606;23.588;2023-11-21T01:01:48;94344.19;;;15.66;39.00
1926;BME280;964;42.606;23.588;2023-11-21T01:04:15;94349.47;;;15.91;38.93
1926;BME280;964;42.606;23.588;2023-11-21T01:06:41;94355.53;;;16.02;38.53
1926;BME280;964;42.606;23.588;2023-11-21T01:09:10;94344.88;;;15.91;38.98
1926;BME280;964;42.606;23.588;2023-11-21T01:11:36;94339.59;;;15.74;38.87
1926;BME280;964;42.606;23.588;2023-11-21T01:14:04;94338.84;;;15.73;39.51
1926;BME280;964;42.606;23.588;2023-11-21T01:16:31;94335.00;;;15.70;39.64
1926;BME280;964;42.606;23.588;2023-11-21T01:18:58;94332.31;;;15.81;38.95
1926;BME280;964;42.606;23.588;2023-11-21T01:21:25;94331.91;;;15.86;38.42
1926;BME280;964;42.606;23.588;2023-11-21T01:23:53;94338.88;;;15.55;38.66
1926;BME280;964;42.606;23.588;2023-11-21T01:26:21;94344.94;;;15.45;39.25
1926;BME280;964;42.606;23.588;2023-11-21T01:28:48;94341.84;;;15.82;38.45
1926;BME280;964;42.606;23.588;2023-11-21T01:31:15;94342.69;;;15.44;38.95
1926;BME280;964;42.606;23.588;2023-11-21T01:33:42;94338.88;;;15.31;39.23
1926;BME280;964;42.606;23.588;2023-11-21T01:36:09;94336.59;;;15.40;39.07
1926;BME280;964;42.606;23.588;2023-11-21T01:38:35;94335.00;;;15.74;38.58
1926;BME280;964;42.606;23.588;2023-11-21T01:41:02;94338.13;;;15.41;39.03
1926;BME280;964;42.606;23.588;2023-11-21T01:43:31;94338.75;;;15.94;38.99
1926;BME280;964;42.606;23.588;2023-11-21T01:45:58;94324.94;;;16.13;38.14
1926;BME280;964;42.606;23.588;2023-11-21T01:48:25;94322.78;;;15.80;38.45
1926;BME280;964;42.606;23.588;2023-11-21T01:50:53;94340.50;;;16.33;37.57
1926;BME280;964;42.606;23.588;2023-11-21T01:53:20;94331.06;;;16.03;37.27
1926;BME280;964;42.606;23.588;2023-11-21T01:55:47;94339.75;;;16.29;37.58
1926;BME280;964;42.606;23.588;2023-11-21T01:58:14;94344.22;;;15.59;38.62
1926;BME280;964;42.606;23.588;2023-11-21T02:00:43;94338.09;;;15.48;38.34
1926;BME280;964;42.606;23.588;2023-11-21T02:03:10;94334.28;;;15.35;38.99
1926;BME280;964;42.606;23.588;2023-11-21T02:05:37;94329.00;;;14.96;39.68
1926;BME280;964;42.606;23.588;2023-11-21T02:08:04;94328.22;;;14.67;39.64
1926;BME280;964;42.606;23.588;2023-11-21T02:10:31;94329.00;;;15.10;39.28
1926;BME280;964;42.606;23.588;2023-11-21T02:12:59;94335.72;;;14.19;40.91
1926;BME280;964;42.606;23.588;2023-11-21T02:15:28;94335.81;;;14.65;40.14
1926;BME280;964;42.606;23.588;2023-11-21T02:17:56;94330.50;;;15.18;39.24
1926;BME280;964;42.606;23.588;2023-11-21T02:20:24;94329.72;;;15.28;38.60
1926;BME280;964;42.606;23.588;2023-11-21T02:22:54;94333.56;;;15.06;38.95
1926;BME280;964;42.606;23.588;2023-11-21T02:25:23;94333.56;;;14.88;39.33
1926;BME280;964;42.606;23.588;2023-11-21T02:27:50;94326.69;;;15.08;39.58
1926;BME280;964;42.606;23.588;2023-11-21T02:30:17;94338.91;;;15.09;39.13
1926;BME280;964;42.606;23.588;2023-11-21T02:32:44;94336.63;;;15.18;38.56
1926;BME280;964;42.606;23.588;2023-11-21T02:35:11;94341.94;;;14.90;39.03
1926;BME280;964;42.606;23.588;2023-11-21T02:37:38;94340.03;;;15.37;38.17
1926;BME280;964;42.606;23.588;2023-11-21T02:40:09;94342.69;;;15.37;38.65
1926;BME280;964;42.606;23.588;2023-11-21T02:42:38;94346.53;;;15.00;39.04
1926;BME280;964;42.606;23.588;2023-11-21T02:45:06;94335.09;;;15.10;39.25
1926;BME280;964;42.606;23.588;2023-11-21T02:47:33;94333.94;;;15.18;39.07
1926;BME280;964;42.606;23.588;2023-11-21T02:50:00;94342.69;;;15.15;39.13
1926;BME280;964;42.606;23.588;2023-11-21T02:52:26;94341.19;;;15.00;39.46
1926;BME280;964;42.606;23.588;2023-11-21T02:54:53;94333.56;;;14.88;39.61
1926;BME280;964;42.606;23.588;2023-11-21T02:57:22;94333.56;;;15.09;39.42
1926;BME280;964;42.606;23.588;2023-11-21T02:59:48;94326.28;;;15.31;38.75
1926;BME280;964;42.606;23.588;2023-11-21T03:02:15;94325.19;;;15.18;39.07
1926;BME280;964;42.606;23.588;2023-11-21T03:04:42;94327.47;;;14.91;39.47
1926;BME280;964;42.606;23.588;2023-11-21T03:07:09;94326.69;;;15.15;39.16
1926;BME280;964;42.606;23.588;2023-11-21T03:09:36;94328.56;;;15.54;38.54
1926;BME280;964;42.606;23.588;2023-11-21T03:12:04;94321.31;;;15.44;38.25
1926;BME280;964;42.606;23.588;2023-11-21T03:14:32;94323.59;;;15.45;37.94
1926;BME280;964;42.606;23.588;2023-11-21T03:16:59;94330.09;;;15.41;38.28
1926;BME280;964;42.606;23.588;2023-11-21T03:19:25;94325.16;;;15.21;38.46
1926;BME280;964;42.606;23.588;2023-11-21T03:21:52;94327.47;;;14.91;39.61
1926;BME280;964;42.606;23.588;2023-11-21T03:24:19;94319.78;;;15.43;38.96
1926;BME280;964;42.606;23.588;2023-11-21T03:26:48;94317.44;;;15.77;37.92
1926;BME280;964;42.606;23.588;2023-11-21T03:29:15;94320.56;;;15.40;38.38
1926;BME280;964;42.606;23.588;2023-11-21T03:31:43;94319.78;;;15.46;38.53
1926;BME280;964;42.606;23.588;2023-11-21T03:34:15;94327.44;;;15.41;38.56
1926;BME280;964;42.606;23.588;2023-11-21T03:36:43;94328.97;;;15.49;38.20
1926;BME280;964;42.606;23.588;2023-11-21T03:39:11;94331.22;;;15.68;38.11
1926;BME280;964;42.606;23.588;2023-11-21T03:41:38;94332.78;;;15.41;38.67
1926;BME280;964;42.606;23.588;2023-11-21T03:44:05;94337.25;;;15.86;38.37
1926;BME280;964;42.606;23.588;2023-11-21T03:46:32;94339.94;;;15.79;38.17
1926;BME280;964;42.606;23.588;2023-11-21T03:49:00;94341.84;;;15.82;37.96
1926;BME280;964;42.606;23.588;2023-11-21T03:51:27;94344.94;;;15.63;39.16
1926;BME280;964;42.606;23.588;2023-11-21T03:53:53;94335.81;;;15.39;39.16
1926;BME280;964;42.606;23.588;2023-11-21T03:56:20;94331.84;;;16.00;38.17
1926;BME280;964;42.606;23.588;2023-11-21T03:58:48;94323.41;;;16.12;37.74
1926;BME280;964;42.606;23.588;2023-11-21T04:01:20;94329.63;;;15.81;38.37
1926;BME280;964;42.606;23.588;2023-11-21T04:03:48;94321.16;;;16.00;38.30
1926;BME280;964;42.606;23.588;2023-11-21T04:06:16;94308.22;;;15.99;38.23
1926;BME280;964;42.606;23.588;2023-11-21T04:08:43;94312.09;;;15.80;38.44
1926;BME280;964;42.606;23.588;2023-11-21T04:11:10;94316.75;;;15.58;38.63
1926;BME280;964;42.606;23.588;2023-11-21T04:13:38;94318.28;;;15.28;39.75
1926;BME280;964;42.606;23.588;2023-11-21T04:16:06;94315.25;;;15.18;39.80
1926;BME280;964;42.606;23.588;2023-11-21T04:18:33;94311.38;;;15.69;38.67
1926;BME280;964;42.606;23.588;2023-11-21T04:21:00;94306.09;;;15.41;39.10
1926;BME280;964;42.606;23.588;2023-11-21T04:23:29;94314.50;;;15.21;38.92
1926;BME280;964;42.606;23.588;2023-11-21T04:25:56;94313.75;;;15.03;40.30
1926;BME280;964;42.606;23.588;2023-11-21T04:28:24;94301.50;;;15.31;39.75
1926;BME280;964;42.606;23.588;2023-11-21T04:30:51;94314.91;;;14.70;39.76
1926;BME280;964;42.606;23.588;2023-11-21T04:33:18;94314.47;;;14.37;40.98
1926;BME280;964;42.606;23.588;2023-11-21T04:35:44;94311.81;;;14.61;40.69
1926;BME280;964;42.606;23.588;2023-11-21T04:38:11;94312.22;;;14.99;39.99
1926;BME280;964;42.606;23.588;2023-11-21T04:40:39;94304.50;;;14.19;41.10
1926;BME280;964;42.606;23.588;2023-11-21T04:43:06;94301.16;;;15.11;39.76
1926;BME280;964;42.606;23.588;2023-11-21T04:45:33;94299.25;;;15.26;39.47
1926;BME280;964;42.606;23.588;2023-11-21T04:48:00;94306.13;;;14.63;40.22
1926;BME280;964;42.606;23.588;2023-11-21T04:50:26;94304.59;;;14.83;40.35
1926;BME280;964;42.606;23.588;2023-11-21T04:52:53;94306.09;;;15.41;39.33
1926;BME280;964;42.606;23.588;2023-11-21T04:55:20;94307.66;;;15.03;39.91
1926;BME280;964;42.606;23.588;2023-11-21T04:57:48;94301.84;;;14.27;41.50
1926;BME280;964;42.606;23.588;2023-11-21T05:00:15;94301.56;;;14.70;40.92
1926;BME280;964;42.606;23.588;2023-11-21T05:02:42;94300.38;;;14.61;40.91
1926;BME280;964;42.606;23.588;2023-11-21T05:05:10;94311.44;;;15.02;40.04
1926;BME280;964;42.606;23.588;2023-11-21T05:07:38;94305.34;;;15.15;39.78
1926;BME280;964;42.606;23.588;2023-11-21T05:10:05;94312.94;;;15.35;38.75
1926;BME280;964;42.606;23.588;2023-11-21T05:12:36;94306.81;;;15.66;39.12
1926;BME280;964;42.606;23.588;2023-11-21T05:15:06;94307.56;;;15.56;38.63
1926;BME280;964;42.606;23.588;2023-11-21T05:17:35;94312.88;;;15.77;38.48
1926;BME280;964;42.606;23.588;2023-11-21T05:20:03;94307.47;;;15.95;38.68
1926;BME280;964;42.606;23.588;2023-11-21T05:22:33;94306.31;;;15.92;38.71
1926;BME280;964;42.606;23.588;2023-11-21T05:25:01;94296.13;;;15.66;38.39
1926;BME280;964;42.606;23.588;2023-11-21T05:27:28;94290.72;;;15.80;38.65
1926;BME280;964;42.606;23.588;2023-11-21T05:29:55;94291.09;;;15.82;38.11
1926;BME280;964;42.606;23.588;2023-11-21T05:32:23;94290.00;;;15.69;38.61
1926;BME280;964;42.606;23.588;2023-11-21T05:34:51;94291.97;;;15.51;38.53
1926;BME280;964;42.606;23.588;2023-11-21T05:37:18;94305.69;;;15.53;38.75
1926;BME280;964;42.606;23.588;2023-11-21T05:39:44;94300.63;;;15.83;38.41
1926;BME280;964;42.606;23.588;2023-11-21T05:42:12;94305.91;;;15.97;38.53
1926;BME280;964;42.606;23.588;2023-11-21T05:44:41;94309.84;;;15.64;38.46
1926;BME280;964;42.606;23.588;2023-11-21T05:47:22;94316.75;;;15.41;39.11
1926;BME280;964;42.606;23.588;2023-11-21T05:50:05;94309.84;;;15.64;38.42
1926;BME280;964;42.606;23.588;2023-11-21T05:52:32;94312.56;;;15.43;38.81
1926;BME280;964;42.606;23.588;2023-11-21T05:54:59;94315.59;;;15.38;39.33
1926;BME280;964;42.606;23.588;2023-11-21T05:57:26;94319.59;;;16.13;37.83
1926;BME280;964;42.606;23.588;2023-11-21T05:59:53;94321.03;;;16.29;37.87
1926;BME280;964;42.606;23.588;2023-11-21T06:02:20;94321.31;;;15.61;38.47
1926;BME280;964;42.606;23.588;2023-11-21T06:04:46;94315.88;;;15.90;37.76
1926;BME280;964;42.606;23.588;2023-11-21T06:07:15;94308.63;;;15.90;37.36
1926;BME280;964;42.606;23.588;2023-11-21T06:09:41;94314.28;;;16.06;38.30
1926;BME280;964;42.606;23.588;2023-11-21T06:12:10;94313.00;;;16.29;38.06
1926;BME280;964;42.606;23.588;2023-11-21T06:14:37;94317.06;;;16.51;37.74
1926;BME280;964;42.606;23.588;2023-11-21T06:17:03;94317.66;;;16.83;37.43
1926;BME280;964;42.606;23.588;2023-11-21T06:19:30;94313.81;;;16.84;36.88
1926;BME280;964;42.606;23.588;2023-11-21T06:21:57;94316.84;;;16.93;37.63
1926;BME280;964;42.606;23.588;2023-11-21T06:24:25;94321.53;;;17.27;36.88
1926;BME280;964;42.606;23.588;2023-11-21T06:26:52;94320.00;;;17.67;36.05
1926;BME280;964;42.606;23.588;2023-11-21T06:29:18;94325.81;;;17.95;35.13
1926;BME280;964;42.606;23.588;2023-11-21T06:31:45;94319.19;;;18.34;34.28
1926;BME280;964;42.606;23.588;2023-11-21T06:34:13;94311.38;;;18.46;34.20
1926;BME280;964;42.606;23.588;2023-11-21T06:36:39;94313.47;;;18.62;34.04
1926;BME280;964;42.606;23.588;2023-11-21T06:39:06;94316.66;;;18.53;34.36
1926;BME280;964;42.606;23.588;2023-11-21T06:41:35;94314.69;;;19.31;33.80
1926;BME280;964;42.606;23.588;2023-11-21T06:44:04;94320.56;;;19.49;33.10
1926;BME280;964;42.606;23.588;2023-11-21T06:46:31;94325.56;;;19.70;32.78
1926;BME280;964;42.606;23.588;2023-11-21T06:48:58;94318.38;;;19.83;32.58
1926;BME280;964;42.606;23.588;2023-11-21T06:51:25;94322.06;;;20.68;31.45
1926;BME280;964;42.606;23.588;2023-11-21T06:53:52;94316.69;;;21.49;30.18
1926;BME280;964;42.606;23.588;2023-11-21T06:56:19;94303.34;;;22.82;28.96
1926;BME280;964;42.606;23.588;2023-11-21T06:58:48;94301.97;;;24.28;27.47
1926;BME280;964;42.606;23.588;2023-11-21T07:01:15;94303.69;;;24.74;25.97
1926;BME280;964;42.606;23.588;2023-11-21T07:03:42;94288.44;;;27.37;23.53
1926;BME280;964;42.606;23.588;2023-11-21T07:06:08;94291.66;;;27.98;22.81
1926;BME280;964;42.606;23.588;2023-11-21T07:08:35;94290.41;;;27.13;23.52
1926;BME280;964;42.606;23.588;2023-11-21T07:11:02;94288.06;;;27.92;23.28
1926;BME280;964;42.606;23.588;2023-11-21T07:13:29;94288.81;;;28.45;22.55
1926;BME280;964;42.606;23.588;2023-11-21T07:15:57;94288.16;;;27.59;23.11
1926;BME280;964;42.606;23.588;2023-11-21T07:18:24;94278.91;;;28.92;22.20
1926;BME280;964;42.606;23.588;2023-11-21T07:20:51;94289.19;;;27.38;23.40
1926;BME280;964;42.606;23.588;2023-11-21T07:23:18;94286.88;;;26.89;24.15
1926;BME280;964;42.606;23.588;2023-11-21T07:25:48;94276.53;;;27.58;23.32
1926;BME280;964;42.606;23.588;2023-11-21T07:28:14;94266.63;;;27.85;23.14
1926;BME280;964;42.606;23.588;2023-11-21T07:30:41;94274.94;;;28.05;23.32
1926;BME280;964;42.606;23.588;2023-11-21T07:33:10;94275.84;;;28.69;22.75
1926;BME280;964;42.606;23.588;2023-11-21T07:35:37;94287.09;;;28.62;22.62
1926;BME280;964;42.606;23.588;2023-11-21T07:38:03;94277.47;;;27.32;23.95
1926;BME280;964;42.606;23.588;2023-11-21T07:40:30;94286.59;;;26.87;24.73
1926;BME280;964;42.606;23.588;2023-11-21T07:42:57;94288.75;;;25.95;25.56
1926;BME280;964;42.606;23.588;2023-11-21T07:45:24;94296.41;;;25.51;25.90
1926;BME280;964;42.606;23.588;2023-11-21T07:47:53;94301.25;;;26.29;25.62
1926;BME280;964;42.606;23.588;2023-11-21T07:50:21;94282.13;;;27.31;24.39
1926;BME280;964;42.606;23.588;2023-11-21T07:52:48;94279.94;;;27.20;24.02
1926;BME280;964;42.606;23.588;2023-11-21T07:55:15;94300.34;;;25.96;25.59
1926;BME280;964;42.606;23.588;2023-11-21T07:57:42;94296.50;;;24.80;27.19
1926;BME280;964;42.606;23.588;2023-11-21T08:00:10;94288.81;;;25.19;27.10
1926;BME280;964;42.606;23.588;2023-11-21T08:02:38;94290.25;;;25.78;26.21
1926;BME280;964;42.606;23.588;2023-11-21T08:05:07;94295.03;;;25.37;26.67
1926;BME280;964;42.606;23.588;2023-11-21T08:07:35;94290.78;;;25.36;26.45
1926;BME280;964;42.606;23.588;2023-11-21T08:10:03;94294.94;;;24.70;27.10
1926;BME280;964;42.606;23.588;2023-11-21T08:12:30;94294.06;;;23.77;28.56
1926;BME280;964;42.606;23.588;2023-11-21T08:14:57;94289.56;;;24.18;27.62
1926;BME280;964;42.606;23.588;2023-11-21T08:17:23;94292.06;;;24.34;27.40
1926;BME280;964;42.606;23.588;2023-11-21T08:19:50;94291.91;;;23.72;27.87
1926;BME280;964;42.606;23.588;2023-11-21T08:22:17;94299.88;;;22.94;29.16
1926;BME280;964;42.606;23.588;2023-11-21T08:24:46;94302.16;;;22.17;29.93
1926;BME280;964;42.606;23.588;2023-11-21T08:27:13;94301.09;;;22.27;30.36
1926;BME280;964;42.606;23.588;2023-11-21T08:29:41;94307.47;;;22.08;30.38
1926;BME280;964;42.606;23.588;2023-11-21T08:32:07;94314.94;;;21.71;31.46
1926;BME280;964;42.606;23.588;2023-11-21T08:34:35;94310.03;;;22.90;29.83
1926;BME280;964;42.606;23.588;2023-11-21T08:37:01;94309.16;;;23.19;29.85
1926;BME280;964;42.606;23.588;2023-11-21T08:39:28;94310.19;;;23.34;29.63
1926;BME280;964;42.606;23.588;2023-11-21T08:41:57;94305.34;;;23.98;28.63
1926;BME280;964;42.606;23.588;2023-11-21T08:44:24;94299.38;;;24.03;28.27
1926;BME280;964;42.606;23.588;2023-11-21T08:46:50;94287.53;;;24.31;28.42
1926;BME280;964;42.606;23.588;2023-11-21T08:49:17;94288.84;;;24.26;28.29
1926;BME280;964;42.606;23.588;2023-11-21T08:51:44;94290.56;;;23.89;28.70
1926;BME280;964;42.606;23.588;2023-11-21T08:54:11;94296.34;;;23.32;29.76
1926;BME280;964;42.606;23.588;2023-11-21T08:56:38;94284.63;;;23.60;29.36
1926;BME280;964;42.606;23.588;2023-11-21T08:59:06;94289.44;;;23.31;29.50
1926;BME280;964;42.606;23.588;2023-11-21T09:01:33;94282.34;;;23.12;29.86
1926;BME280;964;42.606;23.588;2023-11-21T09:04:00;94281.09;;;23.72;29.11
1926;BME280;964;42.606;23.588;2023-11-21T09:06:27;94288.88;;;23.49;29.81
1926;BME280;964;42.606;23.588;2023-11-21T09:08:54;94282.56;;;23.86;28.98
1926;BME280;964;42.606;23.588;2023-11-21T09:11:21;94270.28;;;23.72;29.18
1926;BME280;964;42.606;23.588;2023-11-21T09:13:50;94260.41;;;24.53;28.22
1926;BME280;964;42.606;23.588;2023-11-21T09:16:19;94255.41;;;25.76;27.13
1926;BME280;964;42.606;23.588;2023-11-21T09:18:46;94251.19;;;25.84;26.47
1926;BME280;964;42.606;23.588;2023-11-21T09:21:12;94242.13;;;25.97;26.93
1926;BME280;964;42.606;23.588;2023-11-21T09:23:39;94229.09;;;26.28;26.29
1926;BME280;964;42.606;23.588;2023-11-21T09:26:06;94232.88;;;26.12;26.37
1926;BME280;964;42.606;23.588;2023-11-21T09:28:33;94222.78;;;25.04;27.68
1926;BME280;964;42.606;23.588;2023-11-21T09:31:03;94215.88;;;23.70;29.62
1926;BME280;964;42.606;23.588;2023-11-21T09:33:31;94202.34;;;22.29;31.92
1926;BME280;964;42.606;23.588;2023-11-21T09:35:59;94194.13;;;21.66;33.39
1926;BME280;964;42.606;23.588;2023-11-21T09:38:26;94176.72;;;21.96;32.77
1926;BME280;964;42.606;23.588;2023-11-21T09:40:54;94167.66;;;22.03;33.46
1926;BME280;964;42.606;23.588;2023-11-21T09:43:24;94157.50;;;21.94;33.64
1926;BME280;964;42.606;23.588;2023-11-21T09:45:58;94146.28;;;22.93;31.73
1926;BME280;964;42.606;23.588;2023-11-21T09:48:26;94136.81;;;24.06;30.47
1926;BME280;964;42.606;23.588;2023-11-21T09:50:54;94137.84;;;25.34;28.73
1926;BME280;964;42.606;23.588;2023-11-21T09:53:22;94124.22;;;26.78;27.06
1926;BME280;964;42.606;23.588;2023-11-21T09:55:52;94117.66;;;27.32;25.93
1926;BME280;964;42.606;23.588;2023-11-21T09:58:20;94119.75;;;26.09;27.08
1926;BME280;964;42.606;23.588;2023-11-21T10:00:48;94109.28;;;26.83;26.07
1926;BME280;964;42.606;23.588;2023-11-21T10:03:15;94094.38;;;27.31;25.21
1926;BME280;964;42.606;23.588;2023-11-21T10:05:43;94085.78;;;27.47;25.55
1926;BME280;964;42.606;23.588;2023-11-21T10:08:12;94081.28;;;27.59;25.18
1926;BME280;964;42.606;23.588;2023-11-21T10:10:43;94076.56;;;27.45;25.08
1926;BME280;964;42.606;23.588;2023-11-21T10:13:11;94061.53;;;28.08;25.04
1926;BME280;964;42.606;23.588;2023-11-21T10:15:42;94059.75;;;29.20;24.01
1926;BME280;964;42.606;23.588;2023-11-21T10:18:14;94065.22;;;29.46;23.85
1926;BME280;964;42.606;23.588;2023-11-21T10:20:41;94052.09;;;30.13;23.21
1926;BME280;964;42.606;23.588;2023-11-21T10:23:09;94058.38;;;30.19;22.93
1926;BME280;964;42.606;23.588;2023-11-21T10:25:39;94058.59;;;29.27;23.04
1926;BME280;964;42.606;23.588;2023-11-21T10:28:07;94057.09;;;29.06;23.79
1926;BME280;964;42.606;23.588;2023-11-21T10:30:34;94055.38;;;29.54;23.13
1926;BME280;964;42.606;23.588;2023-11-21T10:33:03;94044.59;;;30.02;22.72
1926;BME280;964;42.606;23.588;2023-11-21T10:35:42;94039.56;;;29.95;22.44
1926;BME280;964;42.606;23.588;2023-11-21T10:38:12;94038.25;;;30.64;22.21
1926;BME280;964;42.606;23.588;2023-11-21T10:40:41;94043.13;;;30.49;22.58
1926;BME280;964;42.606;23.588;2023-11-21T10:43:08;94047.19;;;30.59;22.27
1926;BME280;964;42.606;23.588;2023-11-21T10:45:36;94050.91;;;30.20;22.94
1926;BME280;964;42.606;23.588;2023-11-21T10:48:05;94032.75;;;30.16;22.43
1926;BME280;964;42.606;23.588;2023-11-21T10:50:33;94026.31;;;30.20;22.30
1926;BME280;964;42.606;23.588;2023-11-21T10:53:02;94036.53;;;29.56;22.93
1926;BME280;964;42.606;23.588;2023-11-21T10:55:29;94032.78;;;29.54;23.45
1926;BME280;964;42.606;23.588;2023-11-21T10:58:04;94030.16;;;29.70;22.76
1926;BME280;964;42.606;23.588;2023-11-21T11:00:32;94028.41;;;29.99;22.58
1926;BME280;964;42.606;23.588;2023-11-21T11:02:59;94043.31;;;27.85;24.87
1926;BME280;964;42.606;23.588;2023-11-21T11:05:27;94048.38;;;26.65;26.23
1926;BME280;964;42.606;23.588;2023-11-21T11:07:59;94039.97;;;25.98;27.20
1926;BME280;964;42.606;23.588;2023-11-21T11:10:27;94037.41;;;25.61;27.81
1926;BME280;964;42.606;23.588;2023-11-21T11:12:55;94048.38;;;24.61;29.18
1926;BME280;964;42.606;23.588;2023-11-21T11:15:24;94044.16;;;24.60;29.19
1926;BME280;964;42.606;23.588;2023-11-21T11:17:52;94035.03;;;25.45;27.88
1926;BME280;964;42.606;23.588;2023-11-21T11:20:23;94030.03;;;24.83;28.65
1926;BME280;964;42.606;23.588;2023-11-21T11:22:59;94030.00;;;24.56;28.94
1926;BME280;964;42.606;23.588;2023-11-21T11:25:43;94039.03;;;24.53;29.14
1926;BME280;964;42.606;23.588;2023-11-21T11:28:15;94037.22;;;24.59;29.04
1926;BME280;964;42.606;23.588;2023-11-21T11:30:56;94037.47;;;23.76;29.87
1926;BME280;964;42.606;23.588;2023-11-21T11:33:34;94033.59;;;23.46;30.29
1926;BME280;964;42.606;23.588;2023-11-21T11:36:06;94023.78;;;23.70;30.31
1926;BME280;964;42.606;23.588;2023-11-21T11:38:34;94011.78;;;23.71;30.30
1926;BME280;964;42.606;23.588;2023-11-21T11:41:03;93998.00;;;23.97;30.14
1926;BME280;964;42.606;23.588;2023-11-21T11:43:31;93999.56;;;24.16;29.91
1926;BME280;964;42.606;23.588;2023-11-21T11:46:06;93999.66;;;24.12;30.23
1926;BME280;964;42.606;23.588;2023-11-21T11:48:35;94006.53;;;24.44;29.62
1926;BME280;964;42.606;23.588;2023-11-21T11:51:05;93981.66;;;24.82;28.92
1926;BME280;964;42.606;23.588;2023-11-21T11:53:39;93985.44;;;25.03;29.00
1926;BME280;964;42.606;23.588;2023-11-21T11:56:22;93967.94;;;25.04;29.15
1926;BME280;964;42.606;23.588;2023-11-21T11:58:51;93957.41;;;24.97;29.19
1926;BME280;964;42.606;23.588;2023-11-21T12:01:20;93969.91;;;24.12;30.41
1926;BME280;964;42.606;23.588;2023-11-21T12:04:25;93982.78;;;23.81;30.82
1926;BME280;964;42.606;23.588;2023-11-21T12:07:02;93989.81;;;23.69;31.55
1926;BME280;964;42.606;23.588;2023-11-21T12:09:31;93989.91;;;23.26;32.05
1926;BME280;964;42.606;23.588;2023-11-21T12:11:58;93990.69;;;23.05;31.86
1926;BME280;964;42.606;23.588;2023-11-21T12:14:26;94004.06;;;22.65;32.52
1926;BME280;964;42.606;23.588;2023-11-21T12:16:55;93991.88;;;22.60;33.20
1926;BME280;964;42.606;23.588;2023-11-21T12:19:22;93987.28;;;22.48;32.99
1926;BME280;964;42.606;23.588;2023-11-21T12:21:49;93985.63;;;22.29;33.19
1926;BME280;964;42.606;23.588;2023-11-21T12:24:17;93999.28;;;21.87;33.84
1926;BME280;964;42.606;23.588;2023-11-21T12:26:44;94010.44;;;21.51;33.81
1926;BME280;964;42.606;23.588;2023-11-21T12:29:11;94022.56;;;22.19;33.81
1926;BME280;964;42.606;23.588;2023-11-21T12:31:38;94029.28;;;21.64;34.90
1926;BME280;964;42.606;23.588;2023-11-21T12:34:06;94022.63;;;21.31;35.60
1926;BME280;964;42.606;23.588;2023-11-21T12:36:37;94000.91;;;21.97;34.66
1926;BME280;964;42.606;23.588;2023-11-21T12:39:03;93996.13;;;22.48;33.54
1926;BME280;964;42.606;23.588;2023-11-21T12:41:30;94002.59;;;22.29;33.92
1926;BME280;964;42.606;23.588;2023-11-21T12:43:57;94018.94;;;21.88;33.68
1926;BME280;964;42.606;23.588;2023-11-21T12:46:25;94026.94;;;21.41;34.41
1926;BME280;964;42.606;23.588;2023-11-21T12:48:54;94031.75;;;20.79;34.79
1926;BME280;964;42.606;23.588;2023-11-21T12:51:23;94030.53;;;20.80;35.38
1926;BME280;964;42.606;23.588;2023-11-21T12:53:50;94036.00;;;20.64;34.92
1926;BME280;964;42.606;23.588;2023-11-21T12:56:18;94029.94;;;20.89;35.18
1926;BME280;964;42.606;23.588;2023-11-21T12:58:48;94018.72;;;21.32;34.52
1926;BME280;964;42.606;23.588;2023-11-21T13:01:16;93996.72;;;21.71;33.65
1926;BME280;964;42.606;23.588;2023-11-21T13:03:46;94003.97;;;21.36;33.72
1926;BME280;964;42.606;23.588;2023-11-21T13:06:17;93994.91;;;22.28;32.99
1926;BME280;964;42.606;23.588;2023-11-21T13:08:46;93994.38;;;22.33;32.71
1926;BME280;964;42.606;23.588;2023-11-21T13:11:13;93985.94;;;22.31;32.02
1926;BME280;964;42.606;23.588;2023-11-21T13:13:41;93990.16;;;22.32;31.93
1926;BME280;964;42.606;23.588;2023-11-21T13:16:09;93983.09;;;22.47;32.08
1926;BME280;964;42.606;23.588;2023-11-21T13:18:36;93972.09;;;23.37;31.07
1926;BME280;964;42.606;23.588;2023-11-21T13:21:06;93962.69;;;23.51;30.15
1926;BME280;964;42.606;23.588;2023-11-21T13:23:37;93971.03;;;23.35;31.09
1926;BME280;964;42.606;23.588;2023-11-21T13:26:05;93964.22;;;23.61;30.28